createdAt,value
2023-02-11T00:01:27.750Z,102375.84
2023-02-11T00:03:55.590Z,102389.69
2023-02-11T00:06:22.844Z,102374.06
2023-02-11T00:08:50.424Z,102378.47
2023-02-11T00:11:19.977Z,102380.34
2023-02-11T00:13:47.573Z,102371.66
2023-02-11T00:16:18.015Z,102364.53
2023-02-11T00:18:45.998Z,102365.47
2023-02-11T00:21:19.568Z,102376.88
2023-02-11T00:23:47.099Z,102383.09
2023-02-11T00:26:17.276Z,102398.00
2023-02-11T00:28:44.755Z,102400.94
2023-02-11T00:31:12.893Z,102384.47
2023-02-11T00:33:41.893Z,102382.72
2023-02-11T00:36:12.039Z,102366.31
2023-02-11T00:38:39.447Z,102366.50
2023-02-11T00:41:07.774Z,102355.16
2023-02-11T00:43:36.437Z,102353.56
2023-02-11T00:46:07.203Z,102349.97
2023-02-11T00:48:34.628Z,102361.31
2023-02-11T00:51:02.400Z,102372.72
2023-02-11T00:53:29.715Z,102363.28
2023-02-11T00:55:57.191Z,102372.84
2023-02-11T00:58:24.772Z,102372.84
2023-02-11T01:00:52.347Z,102367.63
2023-02-11T01:03:19.573Z,102369.50
2023-02-11T01:05:47.205Z,102367.75
2023-02-11T01:08:14.627Z,102360.06
2023-02-11T01:10:41.935Z,102355.69
2023-02-11T01:13:09.210Z,102348.84
2023-02-11T01:15:36.504Z,102355.75
2023-02-11T01:18:05.466Z,102353.25
2023-02-11T01:20:32.836Z,102346.25
2023-02-11T01:23:00.039Z,102338.53
2023-02-11T01:25:27.257Z,102343.88
2023-02-11T01:27:54.527Z,102330.78
2023-02-11T01:30:21.892Z,102333.34
2023-02-11T01:32:49.105Z,102325.75
2023-02-11T01:35:16.526Z,102328.00
2023-02-11T01:37:43.954Z,102335.94
2023-02-11T01:40:18.010Z,102326.41
2023-02-11T01:42:45.210Z,102326.47
2023-02-11T01:45:57.677Z,102323.09
2023-02-11T01:48:30.434Z,102306.47
2023-02-11T01:51:06.026Z,102302.19
2023-02-11T01:53:52.148Z,102294.28
2023-02-11T01:56:38.921Z,102285.72
2023-02-11T01:59:14.556Z,102285.88
2023-02-11T02:01:44.157Z,102275.44
2023-02-11T02:04:12.205Z,102265.09
2023-02-11T02:06:51.221Z,102272.94
2023-02-11T02:09:23.877Z,102266.81
2023-02-11T02:11:51.763Z,102264.16
2023-02-11T02:14:19.014Z,102256.56
2023-02-11T02:16:46.265Z,102264.41
2023-02-11T02:19:41.186Z,102255.66
2023-02-11T02:22:17.454Z,102241.75
2023-02-11T02:24:49.412Z,102228.75
2023-02-11T02:27:44.322Z,102234.94
2023-02-11T02:30:11.381Z,102240.13
2023-02-11T02:33:07.904Z,102229.84
2023-02-11T02:36:02.934Z,102228.22
2023-02-11T02:38:44.709Z,102216.91
2023-02-11T02:41:14.387Z,102233.41
2023-02-11T02:43:44.778Z,102223.81
2023-02-11T02:46:19.020Z,102225.56
2023-02-11T02:48:47.191Z,102226.50
2023-02-11T02:51:27.464Z,102233.53
2023-02-11T02:54:36.892Z,102232.72
2023-02-11T02:57:23.003Z,102218.03
2023-02-11T03:00:27.956Z,102220.50
2023-02-11T03:03:10.145Z,102219.69
2023-02-11T03:05:48.212Z,102209.34
2023-02-11T03:08:30.650Z,102208.53
2023-02-11T03:10:58.782Z,102202.53
2023-02-11T03:13:33.405Z,102200.75
2023-02-11T03:16:11.538Z,102197.34
2023-02-11T03:18:41.849Z,102202.47
2023-02-11T03:21:10.155Z,102202.47
2023-02-11T03:23:50.754Z,102207.69
2023-02-11T03:26:32.420Z,102208.66
2023-02-11T03:29:20.952Z,102206.91
2023-02-11T03:31:57.043Z,102205.25
2023-02-11T03:34:44.351Z,102215.66
2023-02-11T03:37:22.125Z,102216.59
2023-02-11T03:40:01.601Z,102218.38
2023-02-11T03:42:34.464Z,102208.94
2023-02-11T03:45:08.758Z,102201.06
2023-02-11T03:47:38.935Z,102198.38
2023-02-11T03:50:09.299Z,102204.44
2023-02-11T03:52:37.996Z,102210.69
2023-02-11T03:55:12.413Z,102207.13
2023-02-11T03:57:40.219Z,102217.59
2023-02-11T04:00:08.733Z,102211.44
2023-02-11T04:02:37.010Z,102219.38
2023-02-11T04:05:05.284Z,102212.41
2023-02-11T04:07:32.657Z,102195.94
2023-02-11T04:09:59.964Z,102206.38
2023-02-11T04:12:27.439Z,102209.06
2023-02-11T04:14:54.672Z,102194.22
2023-02-11T04:17:21.882Z,102198.63
2023-02-11T04:19:49.086Z,102202.03
2023-02-11T04:22:16.338Z,102209.00
2023-02-11T04:24:44.107Z,102212.50
2023-02-11T04:27:11.321Z,102215.09
2023-02-11T04:29:38.604Z,102214.25
2023-02-11T04:32:05.822Z,102205.66
2023-02-11T04:34:33.062Z,102199.56
2023-02-11T04:37:00.271Z,102202.19
2023-02-11T04:39:27.510Z,102202.19
2023-02-11T04:41:54.661Z,102203.94
2023-02-11T04:44:21.944Z,102195.22
2023-02-11T04:46:49.251Z,102203.84
2023-02-11T04:49:17.410Z,102188.16
2023-02-11T04:51:46.995Z,102189.06
2023-02-11T04:54:16.384Z,102183.84
2023-02-11T04:56:43.648Z,102183.88
2023-02-11T04:59:11.822Z,102174.38
2023-02-11T05:01:39.293Z,102184.75
2023-02-11T05:04:06.564Z,102185.63
2023-02-11T05:06:33.814Z,102179.56
2023-02-11T05:09:01.138Z,102180.44
2023-02-11T05:11:28.404Z,102174.44
2023-02-11T05:13:55.789Z,102170.91
2023-02-11T05:16:23.123Z,102161.38
2023-02-11T05:18:52.460Z,102163.13
2023-02-11T05:21:20.101Z,102157.81
2023-02-11T05:23:47.608Z,102157.00
2023-02-11T05:26:15.640Z,102146.53
2023-02-11T05:28:43.081Z,102152.66
2023-02-11T05:31:11.079Z,102148.31
2023-02-11T05:33:38.484Z,102150.97
2023-02-11T05:36:10.521Z,102143.19
2023-02-11T05:38:38.369Z,102143.97
2023-02-11T05:41:06.346Z,102143.19
2023-02-11T05:43:35.374Z,102139.63
2023-02-11T05:46:03.530Z,102132.75
2023-02-11T05:48:31.309Z,102125.72
2023-02-11T05:50:58.610Z,102121.41
2023-02-11T05:53:25.899Z,102120.53
2023-02-11T05:55:53.515Z,102118.81
2023-02-11T05:58:20.803Z,102124.88
2023-02-11T06:00:48.033Z,102123.22
2023-02-11T06:03:15.304Z,102115.41
2023-02-11T06:05:44.134Z,102115.47
2023-02-11T06:08:11.409Z,102123.31
2023-02-11T06:10:38.804Z,102128.53
2023-02-11T06:13:06.036Z,102123.31
2023-02-11T06:15:33.258Z,102131.06
2023-02-11T06:18:00.482Z,102128.53
2023-02-11T06:20:27.732Z,102135.50
2023-02-11T06:22:54.958Z,102130.28
2023-02-11T06:25:22.158Z,102139.00
2023-02-11T06:27:49.384Z,102138.22
2023-02-11T06:30:16.579Z,102131.19
2023-02-11T06:32:45.492Z,102132.00
2023-02-11T06:35:13.662Z,102132.81
2023-02-11T06:37:41.958Z,102126.88
2023-02-11T06:40:10.071Z,102129.47
2023-02-11T06:42:39.351Z,102121.66
2023-02-11T06:45:09.107Z,102130.31
2023-02-11T06:47:36.612Z,102122.44
2023-02-11T06:50:03.996Z,102121.59
2023-02-11T06:52:31.427Z,102112.91
2023-02-11T06:54:58.657Z,102119.00
2023-02-11T06:57:25.867Z,102128.59
2023-02-11T06:59:53.108Z,102128.69
2023-02-11T07:02:21.101Z,102130.38
2023-02-11T07:04:48.596Z,102121.66
2023-02-11T07:07:15.941Z,102135.56
2023-02-11T07:09:43.145Z,102135.66
2023-02-11T07:12:11.132Z,102129.63
2023-02-11T07:14:38.503Z,102129.59
2023-02-11T07:17:05.885Z,102130.53
2023-02-11T07:19:33.075Z,102123.56
2023-02-11T07:22:00.297Z,102123.66
2023-02-11T07:24:27.589Z,102110.53
2023-02-11T07:26:55.146Z,102114.06
2023-02-11T07:29:22.399Z,102110.56
2023-02-11T07:31:50.289Z,102105.41
2023-02-11T07:34:17.559Z,102108.91
2023-02-11T07:36:45.170Z,102109.84
2023-02-11T07:39:12.817Z,102098.47
2023-02-11T07:41:40.077Z,102105.44
2023-02-11T07:44:07.324Z,102078.44
2023-02-11T07:46:36.864Z,102086.31
2023-02-11T07:49:04.252Z,102092.47
2023-02-11T07:51:31.755Z,102089.00
2023-02-11T07:53:59.992Z,102102.91
2023-02-11T07:56:28.273Z,102103.81
2023-02-11T07:58:56.773Z,102109.09
2023-02-11T08:01:28.290Z,102109.06
2023-02-11T08:04:00.309Z,102109.09
2023-02-11T08:06:30.212Z,102103.88
2023-02-11T08:08:57.450Z,102097.78
2023-02-11T08:11:27.272Z,102095.19
2023-02-11T08:13:55.641Z,102103.06
2023-02-11T08:16:34.359Z,102089.09
2023-02-11T08:19:04.125Z,102093.50
2023-02-11T08:21:31.519Z,102103.09
2023-02-11T08:23:58.901Z,102110.94
2023-02-11T08:26:28.949Z,102113.56
2023-02-11T08:28:58.024Z,102131.88
2023-02-11T08:31:27.575Z,102134.50
2023-02-11T08:33:57.913Z,102140.66
2023-02-11T08:36:29.086Z,102140.72
2023-02-11T08:39:12.158Z,102144.19
2023-02-11T08:41:45.337Z,102155.56
2023-02-11T08:44:12.879Z,102152.03
2023-02-11T08:46:40.563Z,102149.44
2023-02-11T08:49:07.806Z,102164.22
2023-02-11T08:51:35.110Z,102171.25
2023-02-11T08:54:02.387Z,102156.41
2023-02-11T08:56:31.614Z,102159.91
2023-02-11T08:59:00.351Z,102152.91
2023-02-11T09:01:29.937Z,102138.94
2023-02-11T09:03:58.123Z,102124.19
2023-02-11T09:06:26.469Z,102127.69
2023-02-11T09:08:56.604Z,102128.56
2023-02-11T09:11:27.979Z,102118.13
2023-02-11T09:13:55.183Z,102114.59
2023-02-11T09:16:24.901Z,102120.72
2023-02-11T09:18:52.402Z,102112.91
2023-02-11T09:21:20.193Z,102114.63
2023-02-11T09:23:48.531Z,102127.72
2023-02-11T09:26:21.917Z,102139.13
2023-02-11T09:28:51.403Z,102141.72
2023-02-11T09:31:21.708Z,102145.22
2023-02-11T09:33:51.021Z,102161.81
2023-02-11T09:36:22.058Z,102158.31
2023-02-11T09:38:49.914Z,102155.69
2023-02-11T09:41:32.041Z,102154.84
2023-02-11T09:44:04.854Z,102149.59
2023-02-11T09:46:35.611Z,102160.97
2023-02-11T09:49:04.690Z,102150.47
2023-02-11T09:52:21.422Z,102149.63
2023-02-11T09:55:06.618Z,102155.75
2023-02-11T09:57:36.174Z,102143.53
2023-02-11T10:00:21.093Z,102166.22
2023-02-11T10:03:14.022Z,102177.59
2023-02-11T10:06:05.863Z,102197.69
2023-02-11T10:08:53.205Z,102200.31
2023-02-11T10:11:36.847Z,102193.34
2023-02-11T10:14:25.170Z,102198.56
2023-02-11T10:17:30.026Z,102198.56
2023-02-11T10:20:25.201Z,102197.69
2023-02-11T10:22:58.681Z,102194.22
2023-02-11T10:25:43.147Z,102193.34
2023-02-11T10:28:17.560Z,102181.13
2023-02-11T10:30:58.142Z,102179.38
2023-02-11T10:33:45.361Z,102191.59
2023-02-11T10:36:14.184Z,102180.25
2023-02-11T10:38:41.648Z,102173.25
2023-02-11T10:41:16.783Z,102181.13
2023-02-11T10:43:44.262Z,102185.50
2023-02-11T10:46:19.430Z,102192.47
2023-02-11T10:48:52.911Z,102192.47
2023-02-11T10:51:26.837Z,102179.38
2023-02-11T10:54:13.818Z,102172.41
2023-02-11T10:56:46.131Z,102175.88
2023-02-11T10:59:28.057Z,102188.13
2023-02-11T11:02:00.690Z,102199.47
2023-02-11T11:04:32.120Z,102189.00
2023-02-11T11:07:23.865Z,102188.97
2023-02-11T11:10:02.610Z,102175.00
2023-02-11T11:12:44.802Z,102165.44
2023-02-11T11:15:16.384Z,102159.28
2023-02-11T11:17:43.608Z,102161.94
2023-02-11T11:20:24.597Z,102164.53
2023-02-11T11:22:54.981Z,102168.03
2023-02-11T11:25:28.374Z,102165.41
2023-02-11T11:28:02.881Z,102155.81
2023-02-11T11:30:39.374Z,102166.28
2023-02-11T11:33:21.792Z,102166.25
2023-02-11T11:36:09.660Z,102169.75
2023-02-11T11:39:25.344Z,102170.66
2023-02-11T11:41:58.644Z,102168.91
2023-02-11T11:44:37.195Z,102166.31
2023-02-11T11:47:13.580Z,102172.38
2023-02-11T11:49:43.503Z,102168.03
2023-02-11T11:52:10.706Z,102163.69
2023-02-11T11:54:39.391Z,102175.00
2023-02-11T11:57:15.987Z,102176.75
2023-02-11T11:59:43.382Z,102173.28
2023-02-11T12:02:33.873Z,102163.69
2023-02-11T12:05:37.850Z,102168.03
2023-02-11T12:08:21.703Z,102174.16
2023-02-11T12:11:12.933Z,102175.88
2023-02-11T12:14:01.114Z,102168.03
2023-02-11T12:17:11.361Z,102168.94
2023-02-11T12:20:04.762Z,102171.53
2023-02-11T12:22:48.797Z,102160.16
2023-02-11T12:25:35.855Z,102167.19
2023-02-11T12:28:29.919Z,102172.41
2023-02-11T12:31:29.146Z,102168.91
2023-02-11T12:34:17.346Z,102168.03
2023-02-11T12:37:19.449Z,102165.41
2023-02-11T12:40:03.499Z,102157.56
2023-02-11T12:43:05.031Z,102161.91
2023-02-11T12:46:18.472Z,102154.94
2023-02-11T12:48:57.845Z,102150.56
2023-02-11T12:51:42.787Z,102150.56
2023-02-11T12:54:42.186Z,102147.91
2023-02-11T12:57:31.142Z,102152.28
2023-02-11T13:00:08.652Z,102162.78
2023-02-11T13:02:55.101Z,102150.53
2023-02-11T13:05:49.433Z,102159.28
2023-02-11T13:08:21.649Z,102153.13
2023-02-11T13:10:53.401Z,102151.38
2023-02-11T13:13:31.918Z,102156.66
2023-02-11T13:16:07.884Z,102158.38
2023-02-11T13:18:42.916Z,102160.97
2023-02-11T13:21:26.736Z,102166.25
2023-02-11T13:24:20.098Z,102164.47
2023-02-11T13:27:15.455Z,102179.34
2023-02-11T13:30:18.782Z,102173.22
2023-02-11T13:32:55.470Z,102180.22
2023-02-11T13:35:32.732Z,102181.09
2023-02-11T13:38:01.561Z,102189.84
2023-02-11T13:40:37.765Z,102188.06
2023-02-11T13:43:10.379Z,102186.31
2023-02-11T13:45:47.841Z,102185.44
2023-02-11T13:48:37.152Z,102184.59
2023-02-11T13:51:08.861Z,102193.34
2023-02-11T13:53:54.984Z,102195.97
2023-02-11T13:56:34.009Z,102194.22
2023-02-11T13:59:26.881Z,102201.19
2023-02-11T14:02:12.855Z,102203.81
2023-02-11T14:05:23.547Z,102206.47
2023-02-11T14:08:27.921Z,102208.16
2023-02-11T14:11:01.171Z,102209.94
2023-02-11T14:13:28.879Z,102216.06
2023-02-11T14:16:22.650Z,102215.19
2023-02-11T14:18:55.433Z,102207.31
2023-02-11T14:21:34.968Z,102215.19
2023-02-11T14:24:03.153Z,102209.94
2023-02-11T14:26:49.576Z,102215.19
2023-02-11T14:29:20.134Z,102207.31
2023-02-11T14:31:55.281Z,102206.44
2023-02-11T14:34:59.392Z,102209.06
2023-02-11T14:37:51.147Z,102214.28
2023-02-11T14:40:30.222Z,102217.78
2023-02-11T14:43:02.402Z,102231.78
2023-02-11T14:45:31.132Z,102226.53
2023-02-11T14:48:08.549Z,102225.66
2023-02-11T14:50:59.089Z,102212.53
2023-02-11T14:53:26.776Z,102219.53
2023-02-11T14:55:55.550Z,102225.66
2023-02-11T14:58:28.451Z,102227.41
2023-02-11T15:01:06.526Z,102226.53
2023-02-11T15:03:47.227Z,102225.69
2023-02-11T15:06:22.721Z,102234.41
2023-02-11T15:09:00.974Z,102228.28
2023-02-11T15:11:32.010Z,102243.16
2023-02-11T15:14:06.771Z,102252.78
2023-02-11T15:16:36.027Z,102250.19
2023-02-11T15:19:05.821Z,102263.28
2023-02-11T15:21:35.068Z,102261.53
2023-02-11T15:24:21.895Z,102270.28
2023-02-11T15:27:08.118Z,102274.66
2023-02-11T15:29:39.865Z,102271.19
2023-02-11T15:32:15.102Z,102272.03
2023-02-11T15:34:43.264Z,102274.69
2023-02-11T15:37:14.582Z,102271.19
2023-02-11T15:39:51.955Z,102267.69
2023-02-11T15:42:34.075Z,102280.78
2023-02-11T15:45:15.690Z,102276.44
2023-02-11T15:47:49.086Z,102277.28
2023-02-11T15:50:25.812Z,102284.28
2023-02-11T15:52:53.582Z,102292.16
2023-02-11T15:55:21.288Z,102289.53
2023-02-11T15:57:59.082Z,102301.75
2023-02-11T16:00:34.714Z,102286.91
2023-02-11T16:03:02.162Z,102288.66
2023-02-11T16:05:40.697Z,102275.56
2023-02-11T16:08:24.659Z,102281.66
2023-02-11T16:11:34.231Z,102280.81
2023-02-11T16:14:05.809Z,102286.91
2023-02-11T16:16:34.940Z,102290.41
2023-02-11T16:19:05.171Z,102292.16
2023-02-11T16:21:39.283Z,102292.16
2023-02-11T16:24:07.656Z,102304.38
2023-02-11T16:26:36.485Z,102302.66
2023-02-11T16:29:25.166Z,102323.63
2023-02-11T16:31:53.878Z,102321.88
2023-02-11T16:34:23.591Z,102326.25
2023-02-11T16:36:52.383Z,102308.78
2023-02-11T16:39:22.492Z,102308.75
2023-02-11T16:41:50.820Z,102301.78
2023-02-11T16:44:23.200Z,102311.41
2023-02-11T16:46:50.673Z,102320.13
2023-02-11T16:49:27.394Z,102327.13
2023-02-11T16:51:56.911Z,102330.63
2023-02-11T16:54:24.266Z,102336.72
2023-02-11T16:56:51.714Z,102347.25
2023-02-11T16:59:19.168Z,102343.75
2023-02-11T17:01:46.942Z,102335.00
2023-02-11T17:04:21.261Z,102335.84
2023-02-11T17:06:48.556Z,102333.25
2023-02-11T17:09:22.927Z,102336.75
2023-02-11T17:11:50.321Z,102344.63
2023-02-11T17:14:18.161Z,102357.72
2023-02-11T17:16:46.922Z,102355.09
2023-02-11T17:19:15.837Z,102356.84
2023-02-11T17:21:47.438Z,102361.22
2023-02-11T17:24:16.506Z,102361.22
2023-02-11T17:26:44.916Z,102371.72
2023-02-11T17:29:14.662Z,102372.59
2023-02-11T17:31:42.139Z,102373.47
2023-02-11T17:34:11.697Z,102377.00
2023-02-11T17:36:40.875Z,102384.84
2023-02-11T17:39:08.423Z,102387.47
2023-02-11T17:41:38.895Z,102384.84
2023-02-11T17:44:07.656Z,102391.84
2023-02-11T17:46:35.556Z,102385.72
2023-02-11T17:49:03.137Z,102398.84
2023-02-11T17:51:33.037Z,102396.22
2023-02-11T17:54:06.530Z,102398.84
2023-02-11T17:56:35.055Z,102412.84
2023-02-11T17:59:02.943Z,102419.84
2023-02-11T18:01:31.791Z,102420.75
2023-02-11T18:03:59.179Z,102417.22
2023-02-11T18:06:29.101Z,102418.09
2023-02-11T18:08:59.577Z,102425.97
2023-02-11T18:11:27.859Z,102413.72
2023-02-11T18:13:55.122Z,102421.59
2023-02-11T18:16:23.873Z,102424.22
2023-02-11T18:18:51.241Z,102428.59
2023-02-11T18:21:20.243Z,102428.59
2023-02-11T18:23:48.386Z,102431.22
2023-02-11T18:26:18.111Z,102437.34
2023-02-11T18:28:46.204Z,102439.97
2023-02-11T18:31:14.425Z,102438.22
2023-02-11T18:33:42.266Z,102442.59
2023-02-11T18:36:12.080Z,102457.47
2023-02-11T18:38:40.006Z,102458.31
2023-02-11T18:41:07.618Z,102459.22
2023-02-11T18:43:35.173Z,102463.59
2023-02-11T18:46:06.695Z,102474.97
2023-02-11T18:48:34.091Z,102482.84
2023-02-11T18:51:01.665Z,102491.56
2023-02-11T18:53:28.955Z,102492.47
2023-02-11T18:55:56.203Z,102491.56
2023-02-11T18:58:23.498Z,102491.56
2023-02-11T19:00:52.227Z,102503.84
2023-02-11T19:03:19.454Z,102493.34
2023-02-11T19:05:49.201Z,102490.75
2023-02-11T19:08:17.168Z,102505.63
2023-02-11T19:10:46.342Z,102508.25
2023-02-11T19:13:14.008Z,102513.50
2023-02-11T19:15:42.222Z,102517.84
2023-02-11T19:18:09.759Z,102522.22
2023-02-11T19:20:40.139Z,102524.88
2023-02-11T19:23:07.687Z,102524.00
2023-02-11T19:25:35.039Z,102529.28
2023-02-11T19:28:03.261Z,102530.13
2023-02-11T19:30:32.638Z,102535.38
2023-02-11T19:32:59.805Z,102532.75
2023-02-11T19:35:27.009Z,102530.13
2023-02-11T19:37:54.235Z,102537.97
2023-02-11T19:40:21.637Z,102545.88
2023-02-11T19:42:49.163Z,102551.13
2023-02-11T19:45:16.481Z,102545.88
2023-02-11T19:47:43.706Z,102554.63
2023-02-11T19:50:11.529Z,102545.91
2023-02-11T19:52:40.262Z,102545.00
2023-02-11T19:55:08.017Z,102545.84
2023-02-11T19:57:36.337Z,102542.31
2023-02-11T20:00:03.938Z,102547.59
2023-02-11T20:02:31.222Z,102544.06
2023-02-11T20:05:00.574Z,102546.69
2023-02-11T20:07:29.566Z,102545.88
2023-02-11T20:09:57.031Z,102556.38
2023-02-11T20:12:24.334Z,102556.38
2023-02-11T20:14:51.553Z,102550.25
2023-02-11T20:17:18.738Z,102558.09
2023-02-11T20:19:45.929Z,102554.59
2023-02-11T20:22:13.251Z,102571.25
2023-02-11T20:24:40.504Z,102583.47
2023-02-11T20:27:08.421Z,102586.09
2023-02-11T20:29:37.695Z,102585.25
2023-02-11T20:32:05.451Z,102589.63
2023-02-11T20:34:33.413Z,102592.22
2023-02-11T20:37:00.696Z,102588.75
2023-02-11T20:39:28.107Z,102583.47
2023-02-11T20:41:56.481Z,102588.72
2023-02-11T20:44:24.011Z,102589.56
2023-02-11T20:46:53.189Z,102593.09
2023-02-11T20:49:22.933Z,102595.72
2023-02-11T20:51:52.037Z,102597.44
2023-02-11T20:54:20.441Z,102600.94
2023-02-11T20:56:48.522Z,102600.94
2023-02-11T20:59:16.846Z,102605.31
2023-02-11T21:01:46.739Z,102600.97
2023-02-11T21:04:19.651Z,102607.97
2023-02-11T21:06:49.006Z,102609.72
2023-02-11T21:09:22.034Z,102611.50
2023-02-11T21:11:51.615Z,102612.38
2023-02-11T21:14:19.966Z,102619.34
2023-02-11T21:16:48.279Z,102627.22
2023-02-11T21:19:16.077Z,102622.81
2023-02-11T21:21:43.492Z,102627.19
2023-02-11T21:24:11.590Z,102630.66
2023-02-11T21:26:38.889Z,102639.44
2023-02-11T21:29:07.322Z,102641.16
2023-02-11T21:31:36.104Z,102637.63
2023-02-11T21:34:04.035Z,102642.84
2023-02-11T21:36:31.298Z,102649.88
2023-02-11T21:38:58.624Z,102652.47
2023-02-11T21:41:27.452Z,102669.09
2023-02-11T21:43:56.855Z,102662.97
2023-02-11T21:46:26.177Z,102660.31
2023-02-11T21:48:53.381Z,102664.72
2023-02-11T21:51:23.275Z,102664.69
2023-02-11T21:53:58.570Z,102683.03
2023-02-11T21:56:28.048Z,102675.19
2023-02-11T21:58:57.140Z,102683.06
2023-02-11T22:01:33.844Z,102673.47
2023-02-11T22:04:01.317Z,102678.69
2023-02-11T22:06:34.120Z,102689.16
2023-02-11T22:09:04.546Z,102689.16
2023-02-11T22:11:31.733Z,102688.25
2023-02-11T22:13:59.135Z,102685.63
2023-02-11T22:16:27.566Z,102696.97
2023-02-11T22:18:56.451Z,102700.44
2023-02-11T22:21:24.052Z,102704.81
2023-02-11T22:23:52.092Z,102710.91
2023-02-11T22:26:23.013Z,102717.94
2023-02-11T22:28:50.575Z,102718.78
2023-02-11T22:31:20.306Z,102718.72
2023-02-11T22:33:48.002Z,102728.38
2023-02-11T22:36:20.725Z,102728.38
2023-02-11T22:38:48.572Z,102726.66
2023-02-11T22:41:17.141Z,102735.38
2023-02-11T22:43:44.925Z,102738.84
2023-02-11T22:46:14.531Z,102742.38
2023-02-11T22:48:42.036Z,102749.38
2023-02-11T22:51:19.287Z,102752.03
2023-02-11T22:53:53.890Z,102759.06
2023-02-11T22:56:21.819Z,102758.13
2023-02-11T22:58:49.778Z,102764.28
2023-02-11T23:01:17.390Z,102772.94
2023-02-11T23:03:44.728Z,102768.53
2023-02-11T23:06:12.331Z,102777.22
2023-02-11T23:08:40.873Z,102765.06
2023-02-11T23:11:11.557Z,102771.16
2023-02-11T23:13:40.740Z,102760.72
2023-02-11T23:16:11.066Z,102759.81
2023-02-11T23:18:39.900Z,102768.59
2023-02-11T23:21:12.403Z,102776.50
2023-02-11T23:23:40.154Z,102774.75
2023-02-11T23:26:11.032Z,102775.53
2023-02-11T23:28:38.639Z,102773.84
2023-02-11T23:31:20.097Z,102779.09
2023-02-11T23:33:48.576Z,102779.06
2023-02-11T23:36:17.169Z,102792.09
2023-02-11T23:38:44.614Z,102791.28
2023-02-11T23:41:12.306Z,102783.50
2023-02-11T23:43:39.659Z,102780.75
2023-02-11T23:46:11.963Z,102785.09
2023-02-11T23:48:40.534Z,102793.00
2023-02-11T23:51:09.791Z,102800.03
2023-02-11T23:53:38.294Z,102793.06
2023-02-11T23:56:10.777Z,102800.06
2023-02-11T23:58:38.148Z,102807.09
